Time;durP1;ratioP1;P1;durP2;ratioP2;P2;SDS_P1;SDS_P2;PMS_P1;PMS_P2;Temp;Humidity;BMP_temperature;BMP_pressure;BME280_temperature;BME280_humidity;BME280_pressure;Samples;Min_cycle;Max_cycle;Signal;HPM_P1;HPM_P2
2022/01/21 00:01:26;;;;;;;0.40;0.40;;;0.30;99.90;;;;;;4438110;32;20058;-64
2022/01/21 00:03:52;;;;;;;0.40;0.40;;;0.30;99.90;;;;;;4440407;32;20104;-64
2022/01/21 00:06:18;;;;;;;0.37;0.37;;;0.30;99.90;;;;;;4438687;32;20156;-64
2022/01/21 00:08:45;;;;;;;0.40;0.40;;;0.30;99.90;;;;;;4440172;32;20553;-64
2022/01/21 00:11:12;;;;;;;0.57;0.57;;;0.30;99.90;;;;;;4440391;32;20073;-64
2022/01/21 00:13:38;;;;;;;0.40;0.40;;;0.30;99.90;;;;;;4443322;32;20057;-65
2022/01/21 00:16:06;;;;;;;1.33;0.90;;;0.30;99.90;;;;;;4438879;32;20411;-65
2022/01/21 00:18:33;;;;;;;0.40;0.40;;;0.30;99.90;;;;;;4439780;32;20557;-65
2022/01/21 00:30:10;;;;;;;0.45;0.45;;;0.30;99.90;;;;;;4438674;32;20512;-65
2022/01/21 00:30:19;;;;;;;0.40;0.40;;;0.20;99.90;;;;;;4439626;32;20081;-64
2022/01/21 00:32:02;;;;;;;0.50;0.50;;;0.20;99.90;;;;;;4438645;32;20086;-64
2022/01/21 00:34:28;;;;;;;0.40;0.40;;;0.20;99.90;;;;;;4440901;32;20084;-64
2022/01/21 00:36:53;;;;;;;0.30;0.30;;;0.20;99.90;;;;;;4438882;32;20553;-65
2022/01/21 00:39:23;;;;;;;0.40;0.40;;;0.10;99.90;;;;;;4439561;32;20081;-64
2022/01/21 00:43:05;;;;;;;0.40;0.40;;;0.10;99.90;;;;;;4440477;32;20086;-63
2022/01/21 00:44:34;;;;;;;0.40;0.40;;;0.20;99.90;;;;;;4439205;32;20659;-64
2022/01/21 00:47:00;;;;;;;0.75;0.75;;;0.10;99.90;;;;;;4440516;32;21560;-65
2022/01/21 00:49:25;;;;;;;4.97;1.20;;;0.20;99.90;;;;;;4440492;32;20422;-64
2022/01/21 00:51:51;;;;;;;0.40;0.40;;;0.20;99.90;;;;;;4437650;32;20089;-65
2022/01/21 00:54:16;;;;;;;0.30;0.30;;;0.30;99.90;;;;;;4440127;32;21382;-64
2022/01/21 00:56:42;;;;;;;0.40;0.40;;;0.20;99.90;;;;;;4438396;32;20065;-64
2022/01/21 00:59:08;;;;;;;0.40;0.40;;;0.20;99.90;;;;;;4441350;32;21425;-64
2022/01/21 01:01:33;;;;;;;0.40;0.40;;;0.20;99.90;;;;;;4437994;32;20525;-64
2022/01/21 01:03:59;;;;;;;0.40;0.40;;;0.20;99.90;;;;;;4440318;32;20072;-64
2022/01/21 01:06:25;;;;;;;0.40;0.40;;;0.20;99.90;;;;;;4439666;32;20065;-64
2022/01/21 01:08:52;;;;;;;0.40;0.40;;;0.20;99.90;;;;;;4440713;32;20120;-65
2022/01/21 01:11:27;;;;;;;0.40;0.40;;;0.10;99.90;;;;;;4440346;32;20116;-64
2022/01/21 01:20:24;;;;;;;0.40;0.40;;;0.10;99.90;;;;;;4438814;32;20100;-64
2022/01/21 01:22:10;;;;;;;0.35;0.35;;;0.10;99.90;;;;;;4438783;32;20156;-64
2022/01/21 01:27:40;;;;;;;0.40;0.40;;;0.20;99.90;;;;;;4435897;32;20151;-64
2022/01/21 01:30:12;;;;;;;0.40;0.40;;;0.20;99.90;;;;;;4440428;32;20149;-64
2022/01/21 01:32:38;;;;;;;0.40;0.40;;;0.20;99.90;;;;;;4439214;32;20872;-64
2022/01/21 01:35:04;;;;;;;0.50;0.50;;;0.20;99.90;;;;;;4440585;32;20410;-64
2022/01/21 01:37:44;;;;;;;0.40;0.40;;;0.20;99.90;;;;;;4439816;32;20088;-64
2022/01/21 01:40:17;;;;;;;0.45;0.45;;;0.20;99.90;;;;;;4442998;32;20089;-64
2022/01/21 01:49:34;;;;;;;0.40;0.40;;;0.20;99.90;;;;;;4441847;32;20085;-63
2022/01/21 01:51:01;;;;;;;0.40;0.40;;;0.20;99.90;;;;;;4441860;32;20140;-65
2022/01/21 01:53:34;;;;;;;0.40;0.40;;;0.10;99.90;;;;;;4442861;32;20533;-65
2022/01/21 01:56:01;;;;;;;0.65;0.65;;;0.10;99.90;;;;;;4439494;32;20121;-64
2022/01/21 01:58:27;;;;;;;0.93;0.77;;;0.20;99.90;;;;;;4441704;32;20136;-65
2022/01/21 02:00:56;;;;;;;3.08;0.65;;;0.20;99.90;;;;;;4441985;32;20113;-65
2022/01/21 02:03:23;;;;;;;0.30;0.30;;;0.10;99.90;;;;;;4442612;32;20105;-65
2022/01/21 02:05:48;;;;;;;0.30;0.30;;;0.10;99.90;;;;;;4442236;32;20134;-64
2022/01/21 02:08:14;;;;;;;0.60;0.60;;;0.20;99.90;;;;;;4442491;32;20065;-65
2022/01/21 02:10:40;;;;;;;0.70;0.70;;;0.10;99.90;;;;;;4442854;32;20076;-66
2022/01/21 02:13:18;;;;;;;0.40;0.40;;;0.20;99.90;;;;;;4441679;32;20065;-65
2022/01/21 02:15:55;;;;;;;0.40;0.40;;;0.20;99.90;;;;;;4441896;32;20072;-65
2022/01/21 02:24:03;;;;;;;1.80;0.70;;;0.10;99.90;;;;;;4441925;32;20138;-64
2022/01/21 02:26:29;;;;;;;0.50;0.50;;;0.10;99.90;;;;;;4441983;32;20073;-66
2022/01/21 02:28:55;;;;;;;8.40;2.28;;;0.00;99.90;;;;;;4442418;32;20089;-65
2022/01/21 02:31:22;;;;;;;0.30;0.30;;;-0.10;99.90;;;;;;4440637;32;20560;-65
2022/01/21 02:33:47;;;;;;;0.40;0.40;;;-0.10;99.90;;;;;;4443748;32;20097;-65
2022/01/21 02:36:13;;;;;;;0.40;0.40;;;-0.10;99.90;;;;;;4440859;32;20404;-63
2022/01/21 02:38:38;;;;;;;2.15;0.65;;;-0.10;99.90;;;;;;4441224;32;20057;-65
2022/01/21 02:41:04;;;;;;;3.03;1.77;;;-0.20;99.90;;;;;;4441357;32;20176;-65
2022/01/21 02:43:29;;;;;;;0.40;0.40;;;-0.20;99.90;;;;;;4442819;32;20120;-65
2022/01/21 02:45:55;;;;;;;0.40;0.40;;;-0.20;99.90;;;;;;4440573;32;20057;-65
2022/01/21 02:48:22;;;;;;;0.93;0.88;;;-0.20;99.90;;;;;;4441163;32;20085;-65
2022/01/21 02:50:48;;;;;;;0.40;0.40;;;-0.20;99.90;;;;;;4441848;32;20065;-65
2022/01/21 02:55:47;;;;;;;0.40;0.40;;;-0.30;99.90;;;;;;4438938;32;21593;-65
2022/01/21 02:58:13;;;;;;;0.50;0.50;;;-0.30;99.90;;;;;;4441253;32;20057;-65
2022/01/21 03:00:39;;;;;;;0.40;0.40;;;-0.30;99.90;;;;;;4439964;32;21790;-65
2022/01/21 03:03:05;;;;;;;0.40;0.40;;;-0.30;99.90;;;;;;4441876;32;20057;-65
2022/01/21 03:05:34;;;;;;;0.47;0.47;;;-0.30;99.90;;;;;;4442961;32;20065;-65
2022/01/21 03:07:59;;;;;;;3.50;2.17;;;-0.30;99.90;;;;;;4442894;32;20583;-65
2022/01/21 03:10:26;;;;;;;0.40;0.40;;;-0.30;99.90;;;;;;4439666;32;20061;-65
2022/01/21 03:12:51;;;;;;;0.40;0.40;;;-0.40;99.90;;;;;;4442167;32;20055;-65
2022/01/21 03:15:17;;;;;;;1.45;1.10;;;-0.40;99.90;;;;;;4441374;32;20338;-65
2022/01/21 03:17:43;;;;;;;0.50;0.50;;;-0.40;99.90;;;;;;4440385;32;20116;-65
2022/01/21 03:20:09;;;;;;;0.40;0.40;;;-0.40;99.90;;;;;;4441184;32;20183;-65
2022/01/21 03:22:36;;;;;;;0.40;0.40;;;-0.50;99.90;;;;;;4441544;32;20068;-65
2022/01/21 03:25:03;;;;;;;0.40;0.40;;;-0.50;99.90;;;;;;4439836;32;20435;-65
2022/01/21 03:27:28;;;;;;;0.40;0.40;;;-0.50;99.90;;;;;;4438909;32;20115;-65
2022/01/21 03:29:54;;;;;;;0.40;0.40;;;-0.40;99.90;;;;;;4441693;32;20524;-65
2022/01/21 03:32:19;;;;;;;0.43;0.43;;;-0.40;99.90;;;;;;4440791;32;20113;-65
2022/01/21 03:34:45;;;;;;;0.40;0.40;;;-0.50;99.90;;;;;;4442121;32;20262;-65
2022/01/21 03:37:10;;;;;;;0.40;0.40;;;-0.40;99.90;;;;;;4442354;32;20501;-64
2022/01/21 03:39:35;;;;;;;0.40;0.40;;;-0.50;99.90;;;;;;4441601;32;20077;-66
2022/01/21 03:42:01;;;;;;;0.70;0.60;;;-0.60;99.90;;;;;;4442875;32;20053;-65
2022/01/21 03:44:27;;;;;;;0.40;0.40;;;-0.60;99.90;;;;;;4440142;32;20155;-65
2022/01/21 03:46:52;;;;;;;0.90;0.85;;;-0.60;99.90;;;;;;4442894;32;20525;-65
2022/01/21 03:49:18;;;;;;;0.40;0.40;;;-0.60;99.90;;;;;;4441347;32;20092;-64
2022/01/21 03:51:43;;;;;;;0.40;0.40;;;-0.70;99.90;;;;;;4441742;32;20162;-64
2022/01/21 03:54:09;;;;;;;0.40;0.40;;;-0.70;99.90;;;;;;4441096;32;20155;-64
2022/01/21 03:56:36;;;;;;;0.45;0.45;;;-0.70;99.90;;;;;;4441292;32;20213;-64
2022/01/21 03:59:02;;;;;;;0.40;0.40;;;-0.70;99.90;;;;;;4441428;32;20093;-64
2022/01/21 04:01:29;;;;;;;0.50;0.50;;;-0.70;99.90;;;;;;4440800;32;20080;-65
2022/01/21 04:03:54;;;;;;;0.50;0.50;;;-0.70;99.90;;;;;;4442317;32;20092;-65
2022/01/21 04:06:20;;;;;;;1.05;1.02;;;-0.80;99.90;;;;;;4440042;32;20100;-63
2022/01/21 04:08:45;;;;;;;0.40;0.40;;;-0.80;99.90;;;;;;4442144;32;20089;-65
2022/01/21 04:11:11;;;;;;;0.40;0.40;;;-0.80;99.90;;;;;;4440897;32;20510;-65
2022/01/21 04:13:36;;;;;;;0.40;0.40;;;-0.70;99.90;;;;;;4442736;32;20100;-64
2022/01/21 04:16:02;;;;;;;0.70;0.70;;;-0.80;99.90;;;;;;4441801;32;20069;-63
2022/01/21 04:18:30;;;;;;;0.40;0.40;;;-0.80;99.90;;;;;;4441680;32;20099;-64
2022/01/21 04:20:55;;;;;;;0.40;0.40;;;-0.90;99.90;;;;;;4440725;32;20077;-66
2022/01/21 04:23:22;;;;;;;0.40;0.40;;;-0.90;99.90;;;;;;4441301;32;20093;-65
2022/01/21 04:25:49;;;;;;;0.40;0.40;;;-0.90;99.90;;;;;;4439122;32;20085;-66
2022/01/21 04:28:14;;;;;;;1.05;1.05;;;-0.90;99.90;;;;;;4439794;32;20072;-64
2022/01/21 04:30:41;;;;;;;0.40;0.40;;;-0.80;99.90;;;;;;4440411;32;20092;-66
2022/01/21 04:33:07;;;;;;;0.40;0.40;;;-0.80;99.90;;;;;;4437606;32;109455;-63
2022/01/21 04:35:34;;;;;;;0.57;0.57;;;-0.90;99.90;;;;;;4441288;32;20089;-64
2022/01/21 04:38:03;;;;;;;0.40;0.40;;;-0.90;99.90;;;;;;4440730;32;20096;-64
2022/01/21 04:40:33;;;;;;;0.50;0.50;;;-1.00;99.90;;;;;;4440235;32;20123;-65
2022/01/21 04:47:17;;;;;;;0.68;0.68;;;-1.00;99.90;;;;;;4439282;32;20073;-65
2022/01/21 04:48:32;;;;;;;0.40;0.40;;;-1.00;99.90;;;;;;4440145;32;20096;-65
2022/01/21 04:51:10;;;;;;;0.40;0.40;;;-1.00;99.90;;;;;;4439884;32;20123;-63
2022/01/21 04:53:36;;;;;;;0.40;0.40;;;-1.10;99.90;;;;;;4440369;32;20077;-66
2022/01/21 04:56:02;;;;;;;0.40;0.40;;;-1.10;99.90;;;;;;4441602;32;20061;-64
2022/01/21 04:58:27;;;;;;;0.40;0.40;;;-1.10;99.90;;;;;;4441020;32;20096;-65
2022/01/21 05:00:53;;;;;;;0.40;0.40;;;-1.10;99.90;;;;;;4439551;32;20139;-65
2022/01/21 05:03:18;;;;;;;0.40;0.40;;;-1.10;99.90;;;;;;4440624;32;20114;-65
2022/01/21 05:05:44;;;;;;;0.40;0.40;;;-1.10;99.90;;;;;;4440352;32;20092;-65
2022/01/21 05:08:21;;;;;;;0.50;0.50;;;-1.10;99.90;;;;;;4439716;32;20086;-65
2022/01/21 05:10:46;;;;;;;0.37;0.37;;;-1.10;99.90;;;;;;4439908;32;20065;-65
2022/01/21 05:13:15;;;;;;;0.40;0.40;;;-1.10;99.90;;;;;;4439732;32;20139;-65
2022/01/21 05:18:08;;;;;;;0.40;0.40;;;-1.10;99.90;;;;;;4439812;32;20081;-65
2022/01/21 05:20:33;;;;;;;0.43;0.43;;;-1.10;99.90;;;;;;4439919;32;20081;-65
2022/01/21 05:22:59;;;;;;;0.40;0.40;;;-1.10;99.90;;;;;;4432723;32;20094;-65
2022/01/21 05:25:25;;;;;;;0.60;0.60;;;-1.00;99.90;;;;;;4439154;32;20073;-66
2022/01/21 05:27:53;;;;;;;0.45;0.45;;;-1.10;99.90;;;;;;4437026;32;20109;-65
2022/01/21 05:30:19;;;;;;;0.40;0.40;;;-1.20;99.90;;;;;;4439323;32;20432;-65
2022/01/21 05:32:45;;;;;;;0.60;0.60;;;-1.20;99.90;;;;;;4441226;32;20109;-65
2022/01/21 05:35:11;;;;;;;0.93;0.93;;;-1.30;99.90;;;;;;4440942;32;20085;-65
2022/01/21 05:37:37;;;;;;;0.40;0.40;;;-1.30;99.90;;;;;;4438492;32;20065;-65
2022/01/21 05:40:06;;;;;;;0.40;0.40;;;-1.20;99.90;;;;;;4441188;32;20053;-65
2022/01/21 05:42:34;;;;;;;0.40;0.40;;;-1.20;99.90;;;;;;4440016;32;20088;-67
2022/01/21 05:47:27;;;;;;;0.40;0.40;;;-1.20;99.90;;;;;;4437799;32;20095;-64
2022/01/21 05:49:53;;;;;;;0.80;0.80;;;-1.20;99.90;;;;;;4438574;32;20061;-64
2022/01/21 05:52:20;;;;;;;1.10;1.10;;;-1.20;99.90;;;;;;4438693;32;20108;-64
2022/01/21 05:54:46;;;;;;;0.40;0.40;;;-1.20;99.90;;;;;;4440097;32;20108;-65
2022/01/21 05:57:16;;;;;;;0.40;0.40;;;-1.10;99.90;;;;;;4439380;32;20081;-65
2022/01/21 05:59:42;;;;;;;0.50;0.50;;;-1.10;99.90;;;;;;4438497;32;20054;-65
2022/01/21 06:02:10;;;;;;;0.40;0.40;;;-1.10;99.90;;;;;;4431685;32;20118;-64
2022/01/21 06:04:38;;;;;;;15.27;1.30;;;-1.20;99.90;;;;;;4435748;32;20077;-65
2022/01/21 06:07:06;;;;;;;0.40;0.40;;;-1.20;99.90;;;;;;4434097;32;20592;-65
2022/01/21 06:09:31;;;;;;;0.70;0.70;;;-1.20;99.90;;;;;;4437660;32;20089;-65
2022/01/21 06:11:57;;;;;;;0.32;0.32;;;-1.20;99.90;;;;;;4435933;32;20073;-65
2022/01/21 06:14:25;;;;;;;0.40;0.40;;;-1.20;99.90;;;;;;4437211;32;20149;-65
2022/01/21 06:16:51;;;;;;;1.17;1.12;;;-1.10;99.90;;;;;;4427893;32;20826;-65
2022/01/21 06:19:17;;;;;;;0.40;0.40;;;-1.10;99.90;;;;;;4429465;32;20105;-65
2022/01/21 06:21:42;;;;;;;0.82;0.82;;;-1.20;99.90;;;;;;4437759;32;20068;-65
2022/01/21 06:24:08;;;;;;;0.50;0.50;;;-1.10;99.90;;;;;;4440715;32;20058;-65
2022/01/21 06:26:35;;;;;;;0.47;0.47;;;-1.20;99.90;;;;;;4427698;32;20442;-65
2022/01/21 06:29:01;;;;;;;0.50;0.50;;;-1.10;99.90;;;;;;4431039;32;20101;-65
2022/01/21 06:31:26;;;;;;;0.43;0.43;;;-1.10;99.90;;;;;;4415787;32;20154;-66
2022/01/21 06:33:54;;;;;;;0.47;0.47;;;-1.10;99.90;;;;;;4438683;32;20101;-64
2022/01/21 06:36:21;;;;;;;0.50;0.50;;;-1.10;99.90;;;;;;4436672;32;20064;-65
2022/01/21 06:38:47;;;;;;;0.40;0.40;;;-1.20;99.90;;;;;;4432013;32;20084;-65
2022/01/21 06:41:14;;;;;;;0.50;0.50;;;-1.20;99.90;;;;;;4437483;32;20077;-65
2022/01/21 06:43:40;;;;;;;0.43;0.43;;;-1.20;99.90;;;;;;4433508;32;20097;-65
2022/01/21 06:46:09;;;;;;;0.47;0.47;;;-1.20;99.90;;;;;;4435236;32;20829;-64
2022/01/21 06:48:35;;;;;;;0.40;0.40;;;-1.20;99.90;;;;;;4438059;32;20100;-65
2022/01/21 06:51:00;;;;;;;0.50;0.50;;;-1.20;99.90;;;;;;4434140;32;20073;-65
2022/01/21 06:53:26;;;;;;;0.40;0.40;;;-1.30;99.90;;;;;;4432746;32;20069;-65
2022/01/21 06:55:51;;;;;;;0.50;0.50;;;-1.30;99.90;;;;;;4430191;32;20126;-65
2022/01/21 06:58:17;;;;;;;0.50;0.50;;;-1.30;99.90;;;;;;4432754;32;20143;-64
2022/01/21 07:00:42;;;;;;;0.47;0.47;;;-1.30;99.90;;;;;;4425697;32;20147;-65
2022/01/21 07:03:08;;;;;;;0.62;0.62;;;-1.20;99.90;;;;;;4423751;32;20719;-64
2022/01/21 07:05:33;;;;;;;0.40;0.40;;;-1.20;99.90;;;;;;4424697;32;20084;-65
2022/01/21 07:08:01;;;;;;;0.40;0.40;;;-1.20;99.90;;;;;;4425193;32;20092;-64
2022/01/21 07:10:27;;;;;;;0.50;0.50;;;-1.20;99.90;;;;;;4425421;32;20525;-64
2022/01/21 07:12:53;;;;;;;0.40;0.40;;;-1.20;99.90;;;;;;4421269;32;20418;-64
2022/01/21 07:15:19;;;;;;;0.40;0.40;;;-1.20;99.90;;;;;;4396713;32;20112;-64
2022/01/21 07:17:46;;;;;;;0.50;0.50;;;-1.20;99.90;;;;;;4410907;32;20200;-65
2022/01/21 07:20:13;;;;;;;0.90;0.88;;;-1.20;99.90;;;;;;4408633;32;20097;-65
2022/01/21 07:22:39;;;;;;;1.02;0.62;;;-1.10;99.90;;;;;;4403802;32;20720;-65
2022/01/21 07:25:05;;;;;;;0.40;0.40;;;-1.20;99.90;;;;;;4408378;32;20104;-64
2022/01/21 07:27:31;;;;;;;0.40;0.40;;;-1.10;99.90;;;;;;4409011;32;20085;-65
2022/01/21 07:29:57;;;;;;;0.82;0.82;;;-1.20;99.90;;;;;;4410416;32;20870;-65
2022/01/21 07:32:23;;;;;;;0.50;0.50;;;-1.10;99.90;;;;;;4417829;32;20073;-65
2022/01/21 07:34:48;;;;;;;8.68;2.37;;;-1.10;99.90;;;;;;4411090;32;21179;-64
2022/01/21 07:37:14;;;;;;;0.40;0.40;;;-1.00;99.90;;;;;;4410917;32;20081;-65
2022/01/21 07:39:39;;;;;;;0.50;0.50;;;-1.00;99.90;;;;;;4415319;32;20770;-65
2022/01/21 07:42:05;;;;;;;0.50;0.50;;;-0.90;99.90;;;;;;4410513;32;20105;-64
2022/01/21 07:44:30;;;;;;;0.40;0.40;;;-0.90;99.90;;;;;;4402650;32;20132;-64
2022/01/21 07:46:56;;;;;;;0.50;0.50;;;-0.80;99.90;;;;;;4407707;32;20089;-63
2022/01/21 07:49:22;;;;;;;0.40;0.40;;;-0.80;99.90;;;;;;4390996;32;20081;-63
2022/01/21 07:51:47;;;;;;;2.20;1.27;;;-0.80;99.90;;;;;;4397909;32;20204;-62
2022/01/21 07:54:14;;;;;;;0.50;0.50;;;-0.90;99.90;;;;;;4404415;32;20084;-64
2022/01/21 07:56:40;;;;;;;1.05;0.98;;;-0.80;99.90;;;;;;4409712;32;20468;-63
2022/01/21 07:59:08;;;;;;;0.60;0.60;;;-0.80;99.90;;;;;;4410690;32;20106;-64
2022/01/21 08:01:35;;;;;;;0.60;0.60;;;-0.70;99.90;;;;;;4408801;32;20120;-65
2022/01/21 08:04:01;;;;;;;0.40;0.40;;;-0.70;99.90;;;;;;4407502;32;20105;-64
2022/01/21 08:06:27;;;;;;;0.50;0.50;;;-0.60;99.90;;;;;;4414959;32;20122;-65
2022/01/21 08:08:54;;;;;;;1.48;1.37;;;-0.60;99.90;;;;;;4413844;32;20113;-64
2022/01/21 08:11:20;;;;;;;0.40;0.40;;;-0.40;99.90;;;;;;4408034;32;20703;-66
2022/01/21 08:13:46;;;;;;;0.40;0.40;;;-0.40;99.90;;;;;;4397537;32;20747;-63
2022/01/21 08:16:11;;;;;;;0.40;0.40;;;-0.40;99.90;;;;;;4412077;32;20365;-63
2022/01/21 08:18:37;;;;;;;0.57;0.57;;;-0.30;99.90;;;;;;4410082;32;20333;-63
2022/01/21 08:21:03;;;;;;;7.57;1.37;;;-0.30;99.90;;;;;;4410791;32;20120;-64
2022/01/21 08:23:28;;;;;;;58.67;2.35;;;-0.30;99.90;;;;;;4413654;32;21347;-64
2022/01/21 08:25:54;;;;;;;0.40;0.40;;;-0.20;99.90;;;;;;4410966;32;20088;-64
2022/01/21 08:28:19;;;;;;;0.40;0.40;;;-0.30;99.90;;;;;;4417996;32;20767;-63
2022/01/21 08:30:45;;;;;;;0.50;0.50;;;-0.20;99.90;;;;;;4420339;32;20494;-64
2022/01/21 08:33:10;;;;;;;0.40;0.40;;;-0.20;99.90;;;;;;4428530;32;20097;-61
2022/01/21 08:35:36;;;;;;;1.85;1.15;;;-0.10;99.90;;;;;;4426062;32;20085;-64
2022/01/21 08:38:03;;;;;;;18.62;1.40;;;0.00;99.90;;;;;;4426378;32;20494;-63
2022/01/21 08:40:29;;;;;;;0.50;0.50;;;0.00;99.90;;;;;;4429669;32;20101;-62
2022/01/21 08:42:55;;;;;;;0.40;0.40;;;0.00;99.90;;;;;;4430629;32;20065;-64
2022/01/21 08:45:21;;;;;;;0.40;0.40;;;0.10;99.90;;;;;;4429485;32;20060;-62
2022/01/21 08:47:47;;;;;;;0.40;0.40;;;0.10;99.90;;;;;;4431551;32;20081;-64
2022/01/21 08:50:17;;;;;;;0.68;0.68;;;0.10;99.90;;;;;;4422999;32;20069;-64
2022/01/21 08:52:44;;;;;;;1.77;1.63;;;0.20;99.90;;;;;;4419183;32;20199;-63
2022/01/21 08:55:12;;;;;;;0.40;0.40;;;0.10;99.90;;;;;;4420100;32;20143;-63
2022/01/21 08:57:41;;;;;;;0.77;0.77;;;0.20;99.90;;;;;;4421673;32;20108;-63
2022/01/21 09:00:10;;;;;;;0.57;0.57;;;0.20;99.90;;;;;;4425867;32;20141;-62
2022/01/21 09:02:36;;;;;;;6.18;2.62;;;0.20;99.90;;;;;;4425014;32;20056;-63
2022/01/21 09:05:02;;;;;;;0.40;0.40;;;0.40;99.90;;;;;;4424531;32;20147;-62
2022/01/21 09:07:27;;;;;;;0.55;0.55;;;0.40;99.90;;;;;;4421177;32;20778;-63
2022/01/21 09:09:53;;;;;;;0.40;0.40;;;0.50;99.90;;;;;;4423007;32;20077;-63
2022/01/21 09:12:18;;;;;;;0.40;0.40;;;0.50;99.90;;;;;;4422714;32;20522;-63
2022/01/21 09:14:44;;;;;;;0.40;0.40;;;0.60;99.90;;;;;;4426369;32;20132;-64
2022/01/21 09:17:09;;;;;;;0.30;0.30;;;0.70;99.90;;;;;;4426691;32;20561;-63
2022/01/21 09:19:35;;;;;;;0.88;0.88;;;0.80;99.90;;;;;;4429687;32;20795;-63
2022/01/21 09:22:02;;;;;;;1.60;0.88;;;0.90;99.90;;;;;;4430882;32;20451;-63
2022/01/21 09:24:29;;;;;;;0.40;0.40;;;1.00;99.90;;;;;;4427381;32;20596;-63
2022/01/21 09:26:54;;;;;;;0.50;0.50;;;1.10;99.90;;;;;;4427213;32;20058;-63
2022/01/21 09:29:20;;;;;;;0.35;0.35;;;1.10;99.90;;;;;;4423137;32;20085;-63
2022/01/21 09:31:45;;;;;;;0.40;0.40;;;1.10;99.90;;;;;;4424423;32;20081;-63
2022/01/21 09:34:11;;;;;;;0.30;0.30;;;1.20;99.90;;;;;;4421845;32;20065;-62
2022/01/21 09:36:38;;;;;;;21.30;1.02;;;1.30;99.90;;;;;;4419859;32;20072;-62
2022/01/21 09:39:05;;;;;;;0.40;0.40;;;1.50;99.90;;;;;;4418880;32;20057;-63
2022/01/21 09:41:31;;;;;;;5.20;1.37;;;1.60;99.90;;;;;;4417846;32;20073;-63
2022/01/21 09:43:59;;;;;;;1.17;1.08;;;1.70;99.90;;;;;;4428838;32;20072;-63
2022/01/21 09:46:32;;;;;;;1.20;0.60;;;1.80;99.90;;;;;;4416611;32;20231;-63
2022/01/21 09:49:07;;;;;;;0.45;0.45;;;2.00;99.90;;;;;;4418228;32;20082;-62
2022/01/21 09:51:35;;;;;;;0.40;0.40;;;1.90;99.90;;;;;;4420377;32;20603;-63
2022/01/21 09:54:02;;;;;;;0.40;0.40;;;1.90;99.90;;;;;;4424074;32;20097;-63
2022/01/21 09:56:29;;;;;;;0.32;0.32;;;1.90;99.90;;;;;;4420149;32;20113;-63
2022/01/21 09:58:55;;;;;;;0.50;0.50;;;2.00;99.90;;;;;;4419933;32;20148;-63
2022/01/21 10:01:21;;;;;;;0.37;0.37;;;2.00;99.90;;;;;;4423991;32;20150;-63
2022/01/21 10:03:49;;;;;;;0.35;0.35;;;1.90;99.90;;;;;;4425043;32;20200;-63
2022/01/21 10:06:18;;;;;;;0.40;0.40;;;2.00;99.90;;;;;;4429650;32;20392;-63
2022/01/21 10:08:45;;;;;;;8.77;1.35;;;2.10;99.90;;;;;;4426001;32;20432;-63
2022/01/21 10:11:11;;;;;;;0.40;0.40;;;2.30;99.90;;;;;;4426881;32;20506;-64
2022/01/21 10:13:37;;;;;;;0.30;0.30;;;2.40;99.90;;;;;;4430513;32;20415;-62
2022/01/21 10:16:05;;;;;;;0.40;0.40;;;2.40;99.90;;;;;;4431432;32;20336;-62
2022/01/21 10:18:31;;;;;;;0.30;0.30;;;2.50;99.90;;;;;;4423915;32;20109;-65
2022/01/21 10:21:01;;;;;;;0.40;0.40;;;2.40;99.90;;;;;;4421121;32;20077;-61
2022/01/21 10:23:28;;;;;;;0.30;0.30;;;2.60;99.90;;;;;;4427101;32;20344;-64
2022/01/21 10:26:00;;;;;;;0.45;0.45;;;2.70;99.90;;;;;;4425889;32;20135;-63
2022/01/21 10:28:26;;;;;;;0.62;0.62;;;2.70;99.90;;;;;;4425780;32;20088;-62
2022/01/21 10:31:13;;;;;;;0.40;0.40;;;2.70;99.90;;;;;;4416404;32;20151;-63
2022/01/21 10:33:51;;;;;;;0.30;0.30;;;2.60;99.90;;;;;;4424068;32;20164;-63
2022/01/21 10:36:25;;;;;;;0.93;0.93;;;2.70;99.90;;;;;;4426490;32;20821;-63
2022/01/21 10:39:00;;;;;;;0.30;0.30;;;2.70;99.90;;;;;;4430017;32;20085;-63
2022/01/21 10:41:31;;;;;;;0.55;0.55;;;2.70;99.90;;;;;;4430086;32;20085;-63
2022/01/21 10:44:05;;;;;;;;;;;2.70;99.90;;;;;;4431143;32;20076;-63
2022/01/21 10:46:31;;;;;;;0.32;0.32;;;2.70;99.90;;;;;;4429716;32;19990;-63
2022/01/21 10:49:03;;;;;;;0.40;0.40;;;2.70;99.90;;;;;;4429299;32;20564;-63
2022/01/21 10:51:31;;;;;;;0.40;0.40;;;2.80;99.90;;;;;;4428545;32;20076;-64
2022/01/21 10:54:10;;;;;;;0.62;0.50;;;2.90;99.90;;;;;;4424720;32;20050;-63
2022/01/21 10:56:35;;;;;;;0.85;0.70;;;3.10;99.90;;;;;;4427729;32;20073;-63
2022/01/21 10:59:00;;;;;;;2.60;1.00;;;3.30;99.90;;;;;;4428400;32;20113;-64
2022/01/21 11:01:29;;;;;;;1.35;0.82;;;3.30;99.90;;;;;;4424712;32;20536;-64
2022/01/21 11:04:11;;;;;;;0.40;0.40;;;3.20;99.90;;;;;;4427809;32;20420;-65
2022/01/21 11:06:50;;;;;;;0.30;0.30;;;3.20;99.90;;;;;;4429976;32;20109;-62
2022/01/21 11:09:20;;;;;;;0.40;0.40;;;3.20;99.90;;;;;;4429781;32;20066;-63
2022/01/21 11:11:48;;;;;;;1.75;1.25;;;3.00;99.90;;;;;;4423164;32;20146;-63
2022/01/21 11:14:18;;;;;;;2.83;0.77;;;3.00;99.90;;;;;;4425985;32;20076;-63
2022/01/21 11:16:46;;;;;;;;;;;3.00;99.90;;;;;;4422215;32;20065;-62
2022/01/21 11:19:16;;;;;;;0.30;0.30;;;3.10;99.90;;;;;;4429508;32;20106;-63
2022/01/21 11:21:53;;;;;;;0.20;0.20;;;3.20;99.90;;;;;;4422542;32;20442;-64
2022/01/21 11:24:21;;;;;;;0.45;0.45;;;3.40;99.90;;;;;;4428134;32;20427;-63
2022/01/21 11:27:08;;;;;;;0.40;0.40;;;3.60;99.90;;;;;;4426066;32;20228;-63
2022/01/21 11:29:35;;;;;;;0.40;0.40;;;3.70;99.90;;;;;;4430967;32;20081;-62
2022/01/21 11:32:00;;;;;;;0.40;0.40;;;3.70;99.90;;;;;;4430956;32;20600;-64
2022/01/21 11:34:26;;;;;;;0.68;0.68;;;3.80;99.90;;;;;;4423157;32;20100;-64
2022/01/21 11:36:53;;;;;;;0.52;0.52;;;3.80;99.90;;;;;;4429251;32;20098;-63
2022/01/21 11:39:21;;;;;;;0.40;0.40;;;4.00;99.90;;;;;;4432840;32;20080;-63
2022/01/21 11:41:50;;;;;;;0.30;0.30;;;4.10;99.90;;;;;;4432008;32;20480;-62
2022/01/21 11:44:19;;;;;;;0.37;0.37;;;4.10;99.90;;;;;;4431179;32;20060;-62
2022/01/21 11:46:59;;;;;;;0.60;0.60;;;4.00;99.90;;;;;;4431771;32;20649;-62
2022/01/21 11:49:25;;;;;;;0.50;0.50;;;3.90;99.90;;;;;;4430871;32;20057;-64
2022/01/21 11:52:11;;;;;;;1.45;1.12;;;3.90;99.90;;;;;;4427042;32;20498;-64
2022/01/21 11:54:37;;;;;;;0.30;0.30;;;4.00;99.90;;;;;;4431600;32;20081;-64
2022/01/21 11:57:05;;;;;;;0.30;0.30;;;4.20;99.90;;;;;;4425600;32;20085;-64
2022/01/21 11:59:37;;;;;;;0.30;0.30;;;4.50;99.90;;;;;;4417248;32;20947;-63
2022/01/21 12:02:22;;;;;;;0.30;0.30;;;4.70;99.90;;;;;;4418521;32;20093;-63
2022/01/21 12:04:50;;;;;;;0.32;0.32;;;4.80;99.90;;;;;;4426582;32;20089;-62
2022/01/21 12:07:37;;;;;;;0.40;0.40;;;4.80;99.90;;;;;;4421680;32;20101;-64
2022/01/21 12:10:06;;;;;;;3.30;1.05;;;5.00;99.90;;;;;;4428459;32;20090;-63
2022/01/21 12:12:57;;;;;;;0.30;0.30;;;5.30;99.90;;;;;;4423884;32;20345;-63
2022/01/21 12:15:37;;;;;;;0.30;0.30;;;5.40;99.90;;;;;;4421632;32;20073;-63
2022/01/21 12:18:10;;;;;;;0.40;0.40;;;5.60;99.90;;;;;;4426281;32;20640;-63
2022/01/21 12:20:36;;;;;;;0.70;0.65;;;5.60;99.90;;;;;;4425512;32;20625;-64
2022/01/21 12:23:14;;;;;;;0.40;0.40;;;5.50;99.90;;;;;;4430838;32;20069;-62
2022/01/21 12:26:20;;;;;;;0.43;0.43;;;5.90;99.90;;;;;;4426428;32;20101;-62
2022/01/21 12:28:56;;;;;;;0.25;0.25;;;6.30;99.90;;;;;;4431701;32;20069;-63
2022/01/21 12:31:48;;;;;;;1.55;0.95;;;6.60;99.90;;;;;;4428365;32;20097;-63
2022/01/21 12:34:15;;;;;;;;;;;6.60;99.90;;;;;;4415652;32;20816;-63
2022/01/21 12:36:48;;;;;;;0.30;0.30;;;6.60;99.50;;;;;;4429122;32;20035;-62
2022/01/21 12:39:34;;;;;;;0.30;0.30;;;6.80;99.80;;;;;;4426313;32;20534;-63
2022/01/21 12:42:23;;;;;;;38.70;0.62;;;6.80;99.10;;;;;;4419273;32;20049;-62
2022/01/21 12:44:51;;;;;;;0.40;0.40;;;6.50;98.70;;;;;;4413510;32;20171;-64
2022/01/21 12:47:43;;;;;;;0.30;0.30;;;6.50;98.70;;;;;;4422531;32;20109;-64
2022/01/21 12:50:15;;;;;;;0.30;0.30;;;6.80;98.80;;;;;;4412636;32;20101;-65
2022/01/21 12:52:53;;;;;;;0.30;0.30;;;6.80;98.30;;;;;;4424362;32;20537;-65
2022/01/21 12:56:21;;;;;;;0.32;0.32;;;7.00;97.30;;;;;;4424044;32;20078;-65
2022/01/21 12:58:07;;;;;;;0.62;0.47;;;7.20;97.20;;;;;;4420428;32;20054;-64
2022/01/21 13:00:32;;;;;;;7.22;1.08;;;6.60;97.70;;;;;;4424533;32;20108;-64
2022/01/21 13:03:07;;;;;;;0.32;0.32;;;6.90;99.00;;;;;;4427241;32;20175;-66
2022/01/21 13:05:41;;;;;;;0.55;0.40;;;6.90;97.80;;;;;;4425728;32;20069;-64
2022/01/21 13:08:28;;;;;;;0.32;0.32;;;7.20;98.40;;;;;;4427442;32;20438;-63
2022/01/21 13:10:54;;;;;;;0.32;0.32;;;7.30;97.20;;;;;;4427525;32;20150;-64
2022/01/21 13:13:48;;;;;;;0.30;0.30;;;7.20;97.30;;;;;;4428645;32;20809;-65
2022/01/21 13:16:05;;;;;;;1.08;0.93;;;6.80;98.00;;;;;;4426517;32;20069;-66
2022/01/21 13:18:32;;;;;;;0.20;0.20;;;6.50;98.00;;;;;;4429934;32;20475;-64
2022/01/21 13:21:03;;;;;;;1.95;1.37;;;6.30;98.40;;;;;;4431189;32;20234;-64
2022/01/21 13:23:43;;;;;;;1.02;0.82;;;5.70;99.30;;;;;;4428209;32;20545;-64
2022/01/21 13:26:15;;;;;;;4.65;2.05;;;5.60;99.90;;;;;;4423841;32;20097;-65
2022/01/21 13:28:58;;;;;;;0.30;0.30;;;5.50;99.90;;;;;;4421462;32;20077;-65
2022/01/21 13:31:24;;;;;;;0.32;0.32;;;5.30;99.90;;;;;;4422857;32;20142;-65
2022/01/21 13:33:50;;;;;;;0.37;0.37;;;5.00;99.90;;;;;;4430936;32;20065;-63
2022/01/21 13:36:35;;;;;;;0.30;0.30;;;5.00;99.90;;;;;;4434008;32;20443;-65